createdAt,value
2023-01-11T00:02:42.250Z,72.61969534529898
2023-01-11T00:07:43.533Z,73.58997156832369
2023-01-11T00:12:39.794Z,73.08251393559009
2023-01-11T00:17:40.024Z,72.54971970234327
2023-01-11T00:22:40.276Z,73.17456346531398
2023-01-11T00:27:35.557Z,74.12919784586396
2023-01-11T00:32:31.811Z,72.50198700165976
2023-01-11T00:37:28.080Z,72.69057489555546
2023-01-11T00:42:24.349Z,73.87357058745927
2023-01-11T00:47:20.600Z,73.3991474206445
2023-01-11T00:52:16.904Z,73.62951439541494
2023-01-11T00:57:13.107Z,72.08963483191933
2023-01-11T01:02:10.415Z,72.98904188010779
2023-01-11T01:07:06.596Z,72.0939556289875
2023-01-11T01:12:02.875Z,72.13104335770782
2023-01-11T01:17:00.143Z,71.54071298928811
2023-01-11T01:21:56.405Z,72.49634765909755
2023-01-11T01:26:52.654Z,70.27935489239324
2023-01-11T01:31:48.947Z,71.13522323225536
2023-01-11T01:36:45.177Z,72.66903457709314
2023-01-11T01:41:42.428Z,72.48641833510719
2023-01-11T01:46:38.745Z,72.64143608918098
2023-01-11T01:51:39.927Z,73.50139830450166
2023-01-11T02:01:44.474Z,73.46966069670452
2023-01-11T02:06:40.721Z,72.39514788618702
2023-01-11T02:11:37.934Z,71.80865012665866
2023-01-11T02:16:34.210Z,71.71617363030464
2023-01-11T02:21:43.406Z,72.66757821332742
2023-01-11T02:26:54.666Z,72.30280787081611
2023-01-11T02:32:01.873Z,72.35515977970346
2023-01-11T02:37:07.116Z,75.03704549910843
2023-01-11T02:42:10.372Z,73.27843207625223
2023-01-11T02:47:14.625Z,73.72133431726195
2023-01-11T02:52:15.805Z,73.5901032095391
2023-01-11T02:57:14.110Z,74.4593521025425
2023-01-11T03:02:15.311Z,74.49999987308107
2023-01-11T03:07:18.573Z,72.76501075636537
2023-01-11T03:12:30.811Z,73.33520975813751
2023-01-11T03:17:39.985Z,72.66818811089531
2023-01-11T03:22:44.265Z,73.70954073445677
2023-01-11T03:27:50.502Z,73.30058369817678
2023-01-11T03:32:51.722Z,73.72274209784625
2023-01-11T03:37:54.991Z,73.71410559448769
2023-01-11T03:42:56.231Z,73.19073963855065
2023-01-11T03:47:54.505Z,72.87909203872037
2023-01-11T03:52:53.737Z,73.6533995782616
2023-01-11T03:57:53.058Z,74.02660011667399
2023-01-11T04:02:50.251Z,73.02151694710268
2023-01-11T04:07:46.500Z,72.61111852055821
2023-01-11T04:12:45.768Z,71.86319372676253
2023-01-11T04:17:42.048Z,73.72622878549669
2023-01-11T04:22:38.276Z,73.24316506298283
2023-01-11T04:27:34.531Z,75.85146799769566
2023-01-11T04:32:30.809Z,73.64081200500303
2023-01-11T04:37:27.054Z,74.24404668214902
2023-01-11T04:42:23.349Z,75.27604122254095
2023-01-11T04:47:20.592Z,75.55483527592811
2023-01-11T04:52:17.840Z,75.396316401012
2023-01-11T04:57:15.122Z,76.07349486478
2023-01-11T05:02:11.395Z,75.30865245299827
2023-01-11T05:07:07.621Z,76.38288436173148
2023-01-11T05:12:03.861Z,75.90462834719818
2023-01-11T05:17:00.178Z,75.6388250506207
2023-01-11T05:21:57.373Z,75.56541427357243
2023-01-11T05:26:54.666Z,75.22149003548239
2023-01-11T05:31:50.933Z,76.14006559750922
2023-01-11T05:36:48.163Z,75.76891925848476
2023-01-11T05:41:44.408Z,75.42682797896623
2023-01-11T05:46:41.664Z,75.22923143956977
2023-01-11T05:51:37.980Z,75.6300391906064
2023-01-11T05:56:34.222Z,75.37801269263291
2023-01-11T06:01:30.448Z,75.7924371230238
2023-01-11T06:06:26.751Z,77.76632132338392
2023-01-11T06:11:23.003Z,76.18136144280331
2023-01-11T06:16:20.271Z,75.00798559305352
2023-01-11T06:21:20.483Z,75.21853150122706
2023-01-11T06:26:17.730Z,74.4820291282963
2023-01-11T06:31:16.964Z,76.18502704707429
2023-01-11T06:36:15.240Z,74.59795990877265
2023-01-11T06:41:12.538Z,75.21123838765558
2023-01-11T06:46:09.785Z,75.09939670826978
2023-01-11T06:51:06.009Z,74.23766103450835
2023-01-11T06:56:02.290Z,74.59363846020409
2023-01-11T07:00:58.631Z,74.98606111276105
2023-01-11T07:05:55.817Z,74.11969460852242
2023-01-11T07:10:52.042Z,73.94165685335564
2023-01-11T07:15:49.356Z,74.7833162061769
2023-01-11T07:20:45.562Z,74.90392548433672
2023-01-11T07:25:42.030Z,73.42662068437343
2023-01-11T07:30:56.001Z,73.7328376894247
2023-01-11T07:35:41.406Z,75.34570013918331
2023-01-11T07:40:37.614Z,74.75404012939754
2023-01-11T07:45:45.369Z,75.51857991788806
2023-01-11T07:50:36.104Z,74.43150414129217
2023-01-11T07:55:36.745Z,74.37141199812028
2023-01-11T08:00:32.633Z,71.5046078420619
2023-01-11T08:05:29.861Z,72.59017023828466
2023-01-11T08:10:26.160Z,72.09360198797125
2023-01-11T08:15:23.799Z,72.03327107663176
2023-01-11T08:20:20.664Z,70.7895628727572
2023-01-11T08:25:16.912Z,71.15814378793759
2023-01-11T08:30:14.156Z,71.82321224370922
2023-01-11T08:35:10.615Z,71.99966758419829
2023-01-11T08:40:07.692Z,71.51053245346769
2023-01-11T08:45:04.934Z,71.71263840483829
2023-01-11T08:50:01.241Z,71.64045134694838
2023-01-11T08:54:58.414Z,70.5592211822139
2023-01-11T08:59:55.343Z,70.59621495821249
2023-01-11T09:04:56.974Z,71.68124610649711
2023-01-11T09:10:01.209Z,69.77008829900262
2023-01-11T09:20:08.961Z,70.07379780005218
2023-01-11T09:25:13.963Z,69.81109876020668
2023-01-11T09:30:16.210Z,70.41841763834412
2023-01-11T09:35:16.871Z,68.93926107772745
2023-01-11T09:40:18.699Z,70.47705688711633
2023-01-11T09:45:28.296Z,67.6819074129776
2023-01-11T09:50:28.148Z,68.57317733970217
2023-01-11T09:55:32.434Z,68.42383186897662
2023-01-11T10:00:48.239Z,67.39008656254019
2023-01-11T10:06:00.684Z,67.39759095588634
2023-01-11T10:18:28.616Z,63.29459958840732
2023-01-11T10:21:56.074Z,65.9162922064647
2023-01-11T10:27:01.767Z,65.97527845571152
2023-01-11T10:32:02.192Z,65.49421229381983
2023-01-11T10:37:17.188Z,64.8140060121998
2023-01-11T10:42:25.387Z,64.32496651734556
2023-01-11T10:47:30.663Z,64.65701203979367
2023-01-11T10:53:01.735Z,64.95368051153015
2023-01-11T10:58:25.548Z,65.89557818781391
2023-01-11T11:03:53.361Z,64.60807044915425
2023-01-11T11:09:06.313Z,64.89257442146092
2023-01-11T11:14:25.139Z,63.052156232121966
2023-01-11T11:19:31.814Z,64.43322832647429
2023-01-11T11:24:41.610Z,62.342889225855416
2023-01-11T11:29:51.277Z,61.009108292481045
2023-01-11T11:34:53.547Z,63.157493742639815
2023-01-11T11:39:59.361Z,63.778230872152434
2023-01-11T11:45:09.920Z,63.16593762088577
2023-01-11T11:50:42.013Z,65.45798301938571
2023-01-11T11:55:35.916Z,62.0161912787381
2023-01-11T12:00:59.605Z,64.39000814442257
2023-01-11T12:06:05.592Z,62.24277387247451
2023-01-11T12:11:36.967Z,63.67924022272111
2023-01-11T12:16:55.769Z,63.58318718135166
2023-01-11T12:22:06.644Z,63.61078990540506
2023-01-11T12:27:48.190Z,64.74177664960496
2023-01-11T12:33:21.221Z,62.88795445481257
2023-01-11T12:38:40.621Z,63.57056401870829
2023-01-11T12:44:01.332Z,63.94044178179915
2023-01-11T12:49:27.315Z,62.946132733686746
2023-01-11T12:54:45.967Z,63.51376147938571
2023-01-11T13:00:22.725Z,63.44603553982883
2023-01-11T13:05:59.797Z,63.196264460736415
2023-01-11T13:11:23.564Z,62.79781622737818
2023-01-11T13:16:39.265Z,63.290180120522535
2023-01-11T13:21:50.466Z,65.06658063024926
2023-01-11T13:26:55.892Z,64.42540671704039
2023-01-11T13:32:07.891Z,64.591933552866
2023-01-11T13:42:59.301Z,70.35515667436967
2023-01-11T13:48:12.528Z,70.17030992702432
2023-01-11T13:53:27.597Z,70.25026009944548
2023-01-11T13:58:42.718Z,70.15647643739939
2023-01-11T14:03:58.389Z,71.28405069470726
2023-01-11T14:09:11.875Z,70.91714079288936
2023-01-11T14:19:46.858Z,71.5682106780431
2023-01-11T14:24:56.984Z,71.15928972290418
2023-01-11T14:30:25.857Z,71.50390384775113
2023-01-11T14:36:02.341Z,72.36629167492488
2023-01-11T14:41:18.557Z,72.17992008734488
2023-01-11T14:46:42.773Z,71.15894278024095
2023-01-11T14:51:58.516Z,71.49259587406597
2023-01-11T14:57:17.177Z,71.29236052035914
2023-01-11T15:02:29.414Z,70.7621055690963
2023-01-11T15:08:00.749Z,70.26038575308904
2023-01-11T15:13:09.242Z,69.29797170966015
2023-01-11T15:18:14.985Z,68.93801943091313
2023-01-11T15:23:18.293Z,70.23606505000772
2023-01-11T15:28:23.457Z,70.8548984952781
2023-01-11T15:33:27.778Z,74.70733816814769
2023-01-11T15:38:31.717Z,76.30588207759077
2023-01-11T15:43:52.227Z,76.3085366859982
2023-01-11T15:49:03.409Z,76.5984234117118
2023-01-11T15:54:21.599Z,76.96333915822402
2023-01-11T15:59:44.322Z,75.57042685109812
2023-01-11T16:04:59.077Z,75.97987464924569
2023-01-11T16:10:17.227Z,76.84550892894325
2023-01-11T16:20:26.762Z,77.16881424428229
2023-01-11T16:25:39.677Z,76.7661066462847
2023-01-11T16:30:55.076Z,77.22527082780259
2023-01-11T16:36:08.083Z,77.7384789009791
2023-01-11T16:41:28.993Z,74.70026427420105
2023-01-11T16:46:41.752Z,73.90863340042975
2023-01-11T16:51:39.981Z,73.40723823104037
2023-01-11T16:56:37.216Z,72.83630934753482
2023-01-11T17:01:40.478Z,73.49639391288356
2023-01-11T17:06:46.711Z,75.35541328537684
2023-01-11T17:11:51.939Z,75.27816042523327
2023-01-11T17:16:49.377Z,75.61222559296176
2023-01-11T17:21:50.468Z,75.2885421574755
2023-01-11T17:26:48.807Z,76.5250051275662
2023-01-11T17:31:51.042Z,75.71675676161303
2023-01-11T17:36:47.209Z,76.70911451522578
2023-01-11T17:41:44.559Z,76.49980079741123
2023-01-11T17:46:44.685Z,76.81148202016855
2023-01-11T17:51:40.955Z,76.15305513151665
2023-01-11T17:56:39.260Z,76.6118957974346
2023-01-11T18:01:47.471Z,76.91104617321085
2023-01-11T18:06:44.705Z,78.14088191992481
2023-01-11T18:11:40.957Z,78.00753110580227
2023-01-11T18:16:42.307Z,77.24161685847041
2023-01-11T18:21:48.453Z,76.59107610790124
2023-01-11T18:27:06.707Z,76.2232946148887
2023-01-11T18:32:02.960Z,76.11850381210155
2023-01-11T18:36:59.211Z,73.59734696869035
2023-01-11T18:41:55.620Z,76.95882792635248
2023-01-11T18:46:51.734Z,75.69747997763116
2023-01-11T18:51:49.969Z,75.09060351572353
2023-01-11T18:56:46.224Z,74.91267905438994
2023-01-11T19:01:56.120Z,74.28518176088902
2023-01-11T19:06:43.735Z,75.37732847583392
2023-01-11T19:11:40.016Z,75.11966577347448
2023-01-11T19:16:36.267Z,73.38923750449233
2023-01-11T19:21:32.496Z,72.97135618511801
2023-01-11T19:26:28.823Z,72.35205076111495
2023-01-11T19:31:24.118Z,70.02420018942647
2023-01-11T19:36:19.313Z,70.95627526509152
2023-01-11T19:41:15.636Z,70.97062519360438
2023-01-11T19:46:12.108Z,70.74681217139867
2023-01-11T19:51:10.094Z,70.33439874846228
2023-01-11T19:56:08.340Z,70.38903520352324
2023-01-11T20:01:08.599Z,69.85119654768488
2023-01-11T20:06:05.845Z,69.06758088132263
2023-01-11T20:11:04.084Z,67.21133261253632
2023-01-11T20:16:03.401Z,68.9244874836248
2023-01-11T20:20:59.630Z,69.00692524309248
2023-01-11T20:25:59.846Z,69.07115080799718
2023-01-11T20:30:56.229Z,69.66799836062951
2023-01-11T20:35:52.363Z,68.74655099372643
2023-01-11T20:40:48.604Z,68.88591543001806
2023-01-11T20:45:50.865Z,68.04708367514272
2023-01-11T20:50:47.159Z,66.91764267175212
2023-01-11T20:55:43.448Z,66.2227996043436
2023-01-11T21:00:40.680Z,69.788642270188
2023-01-11T21:05:36.892Z,69.4329915590089
2023-01-11T21:10:33.180Z,71.27058165076814
2023-01-11T21:15:29.422Z,68.35164538873347
2023-01-11T21:20:25.664Z,70.42968116069011
2023-01-11T21:25:21.955Z,70.84626093327226
2023-01-11T21:30:18.238Z,68.38118437883764
2023-01-11T21:35:14.476Z,69.06279114884845
2023-01-11T21:40:12.720Z,71.69784889219483
2023-01-11T21:45:09.991Z,71.15055131682783
2023-01-11T21:50:07.257Z,72.33710238604256
2023-01-11T21:55:03.476Z,69.67504397239372
2023-01-11T21:59:59.826Z,69.36448772238916
2023-01-11T22:04:55.053Z,69.23850246389031
2023-01-11T22:10:04.163Z,67.73973889693679
2023-01-11T22:14:51.539Z,69.71201905520758
2023-01-11T22:19:47.806Z,65.1925908638025
2023-01-11T22:24:44.052Z,67.08495506841525
2023-01-11T22:29:40.324Z,66.88704158302774
2023-01-11T22:34:36.568Z,67.54363915536614
2023-01-11T22:39:32.808Z,69.53713809050994
2023-01-11T22:44:29.064Z,70.04310153266249
2023-01-11T22:49:24.348Z,69.12429696840722
2023-01-11T22:54:21.603Z,70.84773768615236
2023-01-11T22:59:17.892Z,69.0088332928124
2023-01-11T23:04:14.134Z,69.1434414815835
2023-01-11T23:09:11.352Z,69.60411666066011
2023-01-11T23:14:08.664Z,69.57564987036778
2023-01-11T23:19:05.908Z,69.16788404847755
2023-01-11T23:24:02.206Z,69.32501310806363
2023-01-11T23:28:58.404Z,70.11399616537824
2023-01-11T23:33:55.693Z,69.88321658604215
2023-01-11T23:38:50.965Z,69.64726223608106
2023-01-11T23:43:47.201Z,69.378032583045
2023-01-11T23:48:43.479Z,71.38819107170836
2023-01-11T23:53:39.813Z,72.03126546627071
2023-01-11T23:58:34.972Z,72.70266090008505
